createdAt,value
2018-09-12T00:01:11.665Z,2.90
2018-09-12T00:03:40.505Z,3.20
2018-09-12T00:06:09.321Z,2.70
2018-09-12T00:08:38.189Z,2.80
2018-09-12T00:11:07.037Z,3.40
2018-09-12T00:13:35.856Z,2.87
2018-09-12T00:16:04.782Z,3.00
2018-09-12T00:18:33.643Z,3.07
2018-09-12T00:21:02.814Z,3.17
2018-09-12T00:23:31.803Z,3.63
2018-09-12T00:26:00.668Z,2.90
2018-09-12T00:28:29.527Z,2.87
2018-09-12T00:30:58.375Z,3.00
2018-09-12T00:33:27.183Z,3.00
2018-09-12T00:35:56.047Z,3.00
2018-09-12T00:38:24.932Z,2.67
2018-09-12T00:40:53.755Z,3.47
2018-09-12T00:43:22.605Z,3.60
2018-09-12T00:45:51.443Z,2.80
2018-09-12T00:48:20.346Z,3.10
2018-09-12T00:50:49.162Z,3.03
2018-09-12T00:53:18.027Z,3.10
2018-09-12T00:55:46.863Z,2.80
2018-09-12T00:58:15.666Z,3.60
2018-09-12T01:00:44.519Z,3.27
2018-09-12T01:03:13.355Z,2.97
2018-09-12T01:05:43.167Z,2.90
2018-09-12T01:08:13.259Z,3.23
2018-09-12T01:10:42.151Z,3.17
2018-09-12T01:13:11.033Z,2.73
2018-09-12T01:15:39.936Z,2.73
2018-09-12T01:18:12.935Z,3.43
2018-09-12T01:20:41.827Z,2.80
2018-09-12T01:23:10.697Z,3.30
2018-09-12T01:25:39.745Z,3.53
2018-09-12T01:28:08.624Z,2.90
2018-09-12T01:30:37.476Z,3.30
2018-09-12T01:33:06.328Z,3.50
2018-09-12T01:35:35.192Z,3.67
2018-09-12T01:38:04.044Z,3.30
2018-09-12T01:40:32.846Z,3.30
2018-09-12T01:43:01.745Z,3.40
2018-09-12T01:45:30.646Z,3.13
2018-09-12T01:47:59.519Z,3.13
2018-09-12T01:50:28.408Z,2.80
2018-09-12T01:52:57.253Z,3.13
2018-09-12T01:55:26.078Z,3.50
2018-09-12T01:57:54.961Z,3.17
2018-09-12T02:00:29.181Z,3.20
2018-09-12T02:02:58.006Z,3.83
2018-09-12T02:05:26.844Z,3.10
2018-09-12T02:07:55.699Z,3.60
2018-09-12T02:10:24.560Z,3.57
2018-09-12T02:12:53.437Z,3.27
2018-09-12T02:15:22.286Z,3.47
2018-09-12T02:17:51.089Z,3.40
2018-09-12T02:20:19.896Z,3.50
2018-09-12T02:22:48.776Z,3.57
2018-09-12T02:25:17.648Z,3.33
2018-09-12T02:27:46.461Z,3.87
2018-09-12T02:30:15.295Z,3.27
2018-09-12T02:32:44.315Z,4.07
2018-09-12T02:35:13.164Z,3.67
2018-09-12T02:37:42.033Z,3.77
2018-09-12T02:40:10.944Z,3.93
2018-09-12T02:42:39.834Z,4.10
2018-09-12T02:45:08.659Z,3.97
2018-09-12T02:47:38.675Z,3.73
2018-09-12T02:50:10.192Z,3.83
2018-09-12T02:52:39.106Z,4.50
2018-09-12T02:55:10.090Z,3.70
2018-09-12T02:57:38.971Z,4.60
2018-09-12T03:00:08.373Z,3.80
2018-09-12T03:02:37.372Z,3.73
2018-09-12T03:05:06.578Z,3.40
2018-09-12T03:07:35.432Z,3.10
2018-09-12T03:10:04.368Z,3.90
2018-09-12T03:12:33.216Z,3.97
2018-09-12T03:15:02.089Z,3.97
2018-09-12T03:17:30.911Z,3.73
2018-09-12T03:19:59.718Z,4.10
2018-09-12T03:22:28.544Z,4.03
2018-09-12T03:24:57.433Z,3.70
2018-09-12T03:27:26.305Z,4.20
2018-09-12T03:29:55.134Z,3.60
2018-09-12T03:32:24.020Z,3.60
2018-09-12T03:34:52.964Z,3.67
2018-09-12T03:37:21.832Z,3.90
2018-09-12T03:39:50.678Z,3.83
2018-09-12T03:42:19.513Z,3.40
2018-09-12T03:44:48.445Z,4.03
2018-09-12T03:47:17.332Z,3.87
2018-09-12T03:49:46.208Z,3.83
2018-09-12T03:52:15.064Z,3.30
2018-09-12T03:54:43.903Z,3.60
2018-09-12T03:57:12.780Z,3.70
2018-09-12T03:59:41.640Z,3.63
2018-09-12T04:02:10.492Z,3.63
2018-09-12T04:04:39.299Z,3.80
2018-09-12T04:07:08.143Z,4.00
2018-09-12T04:09:36.992Z,3.60
2018-09-12T04:12:05.824Z,3.43
2018-09-12T04:14:34.745Z,3.57
2018-09-12T04:17:03.567Z,4.10
2018-09-12T04:19:32.416Z,3.33
2018-09-12T04:22:01.295Z,4.00
2018-09-12T04:24:30.181Z,3.80
2018-09-12T04:26:59.096Z,3.73
2018-09-12T04:29:27.931Z,3.80
2018-09-12T04:31:56.767Z,3.73
2018-09-12T04:34:25.603Z,3.80
2018-09-12T04:36:54.451Z,3.97
2018-09-12T04:39:23.275Z,4.07
2018-09-12T04:41:52.191Z,4.07
2018-09-12T04:44:21.271Z,3.80
2018-09-12T04:46:50.127Z,3.00
2018-09-12T04:49:18.943Z,3.80
2018-09-12T04:51:47.776Z,4.17
2018-09-12T04:54:16.663Z,4.37
2018-09-12T04:56:45.511Z,3.60
2018-09-12T04:59:14.490Z,3.77
2018-09-12T05:01:43.401Z,3.83
2018-09-12T05:04:12.304Z,4.10
2018-09-12T05:06:42.108Z,3.67
2018-09-12T05:09:11.968Z,3.80
2018-09-12T05:11:41.044Z,3.73
2018-09-12T05:14:09.891Z,4.27
2018-09-12T05:16:38.786Z,4.03
2018-09-12T05:19:07.677Z,3.53
2018-09-12T05:21:36.497Z,3.37
2018-09-12T05:24:05.321Z,4.03
2018-09-12T05:26:34.186Z,3.60
2018-09-12T05:29:03.032Z,3.70
2018-09-12T05:31:31.892Z,3.73
2018-09-12T05:34:00.785Z,4.23
2018-09-12T05:36:29.801Z,3.50
2018-09-12T05:38:59.038Z,4.40
2018-09-12T05:41:27.852Z,4.50
2018-09-12T05:43:56.688Z,3.50
2018-09-12T05:46:25.568Z,3.60
2018-09-12T05:48:54.487Z,3.73
2018-09-12T05:51:23.306Z,3.43
2018-09-12T05:53:52.119Z,4.23
2018-09-12T05:56:20.984Z,4.80
2018-09-12T05:58:49.852Z,3.37
2018-09-12T06:01:18.686Z,2.90
2018-09-12T06:03:47.495Z,4.17
2018-09-12T06:06:16.352Z,4.47
2018-09-12T06:08:45.183Z,3.30
2018-09-12T06:11:14.074Z,3.67
2018-09-12T06:13:42.914Z,4.17
2018-09-12T06:16:11.816Z,3.47
2018-09-12T06:18:40.651Z,3.80
2018-09-12T06:21:09.443Z,4.80
2018-09-12T06:23:38.344Z,3.73
2018-09-12T06:26:07.217Z,3.13
2018-09-12T06:28:36.101Z,3.63
2018-09-12T06:31:05.000Z,3.07
2018-09-12T06:33:33.917Z,4.20
2018-09-12T06:36:02.809Z,3.73
2018-09-12T06:38:31.709Z,3.43
2018-09-12T06:41:00.621Z,4.23
2018-09-12T06:43:29.613Z,4.13
2018-09-12T06:45:58.521Z,3.50
2018-09-12T06:48:27.380Z,3.77
2018-09-12T06:50:56.270Z,3.67
2018-09-12T06:53:25.107Z,3.10
2018-09-12T06:55:53.973Z,4.00
2018-09-12T06:58:22.939Z,3.73
2018-09-12T07:00:51.881Z,3.87
2018-09-12T07:03:20.708Z,3.40
2018-09-12T07:05:49.547Z,3.47
2018-09-12T07:08:18.362Z,3.83
2018-09-12T07:10:47.277Z,2.97
2018-09-12T07:13:16.103Z,3.30
2018-09-12T07:15:44.952Z,4.00
2018-09-12T07:18:13.804Z,3.73
2018-09-12T07:20:42.614Z,3.70
2018-09-12T07:23:11.452Z,4.13
2018-09-12T07:25:40.278Z,3.70
2018-09-12T07:28:09.128Z,3.17
2018-09-12T07:30:38.083Z,3.43
2018-09-12T07:33:06.852Z,3.50
2018-09-12T07:35:35.694Z,3.73
2018-09-12T07:38:04.549Z,3.63
2018-09-12T07:40:33.376Z,3.40
2018-09-12T07:43:02.244Z,3.63
2018-09-12T07:45:31.080Z,3.37
2018-09-12T07:47:59.920Z,3.20
2018-09-12T07:50:28.791Z,3.00
2018-09-12T07:52:57.912Z,4.03
2018-09-12T07:55:26.781Z,3.80
2018-09-12T07:57:55.661Z,3.47
2018-09-12T08:00:24.606Z,3.40
2018-09-12T08:02:53.384Z,3.50
2018-09-12T08:05:22.247Z,2.87
2018-09-12T08:07:51.177Z,3.40
2018-09-12T08:10:20.011Z,2.90
2018-09-12T08:12:48.872Z,3.27
2018-09-12T08:15:17.773Z,3.60
2018-09-12T08:17:46.584Z,3.57
2018-09-12T08:20:15.437Z,2.40
2018-09-12T08:22:44.275Z,2.90
2018-09-12T08:25:13.102Z,2.77
2018-09-12T08:27:41.956Z,2.80
2018-09-12T08:30:10.932Z,3.77
2018-09-12T08:32:39.829Z,3.00
2018-09-12T08:35:08.690Z,2.57
2018-09-12T08:37:37.601Z,3.20
2018-09-12T08:40:07.820Z,2.90
2018-09-12T08:42:36.808Z,3.17
2018-09-12T08:45:05.659Z,2.70
2018-09-12T08:47:34.575Z,2.50
2018-09-12T08:50:03.401Z,2.87
2018-09-12T08:52:32.235Z,2.97
2018-09-12T08:55:01.137Z,2.37
2018-09-12T08:57:30.031Z,2.70
2018-09-12T08:59:58.935Z,3.23
2018-09-12T09:02:27.757Z,2.83
2018-09-12T09:04:56.985Z,3.10
2018-09-12T09:07:25.919Z,2.97
2018-09-12T09:09:54.805Z,3.70
2018-09-12T09:12:23.627Z,3.03
2018-09-12T09:14:52.489Z,3.20
2018-09-12T09:17:21.361Z,3.03
2018-09-12T09:19:50.298Z,2.77
2018-09-12T09:22:19.166Z,3.20
2018-09-12T09:24:48.060Z,2.87
2018-09-12T09:27:16.952Z,2.70
2018-09-12T09:29:45.780Z,2.37
2018-09-12T09:32:14.635Z,2.70
2018-09-12T09:34:43.532Z,2.63
2018-09-12T09:37:12.401Z,3.30
2018-09-12T09:39:41.211Z,2.80
2018-09-12T09:42:10.117Z,2.87
2018-09-12T09:44:38.963Z,2.63
2018-09-12T09:47:07.876Z,2.90
2018-09-12T09:49:36.735Z,2.37
2018-09-12T09:52:05.713Z,2.73
2018-09-12T09:54:34.597Z,2.30
2018-09-12T09:57:03.646Z,2.80
2018-09-12T09:59:32.452Z,2.23
2018-09-12T10:02:06.910Z,2.67
2018-09-12T10:04:41.193Z,2.90
2018-09-12T10:07:15.504Z,2.67
2018-09-12T10:09:44.404Z,2.40
2018-09-12T10:12:13.253Z,2.30
2018-09-12T10:14:42.161Z,2.50
2018-09-12T10:17:11.002Z,2.50
2018-09-12T10:19:39.881Z,3.13
2018-09-12T10:22:08.748Z,2.80
2018-09-12T10:24:37.543Z,3.13
2018-09-12T10:27:06.596Z,1.90
2018-09-12T10:29:35.449Z,2.13
2018-09-12T10:32:04.315Z,2.50
2018-09-12T10:34:33.201Z,2.03
2018-09-12T10:37:02.076Z,2.10
2018-09-12T10:39:30.942Z,2.47
2018-09-12T10:41:59.842Z,2.30
2018-09-12T10:44:28.670Z,2.30
2018-09-12T10:46:57.569Z,2.37
2018-09-12T10:49:26.469Z,2.30
2018-09-12T10:51:55.539Z,2.47
2018-09-12T10:54:24.405Z,2.27
2018-09-12T10:56:53.321Z,2.07
2018-09-12T10:59:22.363Z,2.47
2018-09-12T11:01:51.259Z,2.10
2018-09-12T11:04:20.210Z,2.20
2018-09-12T11:06:49.036Z,2.30
2018-09-12T11:09:17.853Z,2.10
2018-09-12T11:11:46.717Z,2.00
2018-09-12T11:14:15.596Z,2.53
2018-09-12T11:16:44.432Z,1.90
2018-09-12T11:19:13.288Z,2.10
2018-09-12T11:21:42.099Z,1.83
2018-09-12T11:24:10.984Z,2.20
2018-09-12T11:26:39.875Z,2.07
2018-09-12T11:29:08.715Z,2.60
2018-09-12T11:31:37.638Z,1.80
2018-09-12T11:34:06.546Z,2.07
2018-09-12T11:36:35.347Z,1.80
2018-09-12T11:39:06.236Z,1.73
2018-09-12T11:41:35.128Z,2.13
2018-09-12T11:44:03.987Z,2.10
2018-09-12T11:46:33.172Z,2.20
2018-09-12T11:49:02.371Z,1.70
2018-09-12T11:51:31.502Z,1.90
2018-09-12T11:54:00.375Z,2.37
2018-09-12T11:56:29.279Z,2.03
2018-09-12T11:58:58.225Z,2.00
2018-09-12T12:01:27.073Z,1.97
2018-09-12T12:03:55.968Z,2.40
2018-09-12T12:06:24.840Z,1.90
2018-09-12T12:08:53.702Z,1.90
2018-09-12T12:11:22.615Z,2.10
2018-09-12T12:13:52.025Z,2.13
2018-09-12T12:16:20.933Z,2.30
2018-09-12T12:18:49.803Z,1.87
2018-09-12T12:21:18.647Z,2.10
2018-09-12T12:23:47.512Z,2.13
2018-09-12T12:26:16.360Z,2.30
2018-09-12T12:28:45.462Z,2.07
2018-09-12T12:31:14.381Z,2.10
2018-09-12T12:33:43.215Z,2.87
2018-09-12T12:36:12.083Z,2.50
2018-09-12T12:38:41.278Z,2.10
2018-09-12T12:41:10.187Z,2.00
2018-09-12T12:43:39.103Z,2.63
2018-09-12T12:46:07.919Z,1.97
2018-09-12T12:48:36.825Z,2.33
2018-09-12T12:51:05.845Z,2.10
2018-09-12T12:53:34.703Z,2.30
2018-09-12T12:56:03.556Z,1.93
2018-09-12T12:58:32.382Z,2.30
2018-09-12T13:01:01.217Z,2.57
2018-09-12T13:03:30.029Z,2.37
2018-09-12T13:05:58.866Z,2.10
2018-09-12T13:08:27.777Z,2.00
2018-09-12T13:10:56.724Z,2.20
2018-09-12T13:13:25.687Z,2.43
2018-09-12T13:15:54.523Z,2.57
2018-09-12T13:18:23.410Z,2.07
2018-09-12T13:20:52.402Z,2.60
2018-09-12T13:23:21.337Z,2.67
2018-09-12T13:25:50.241Z,2.53
2018-09-12T13:28:19.051Z,1.80
2018-09-12T13:30:47.952Z,2.90
2018-09-12T13:33:16.832Z,2.13
2018-09-12T13:35:45.660Z,2.67
2018-09-12T13:38:14.545Z,1.80
2018-09-12T13:40:43.387Z,1.90
2018-09-12T13:43:12.222Z,2.13
2018-09-12T13:45:41.109Z,2.07
2018-09-12T13:48:09.937Z,1.97
2018-09-12T13:50:38.735Z,2.10
2018-09-12T13:53:07.551Z,2.03
2018-09-12T13:55:36.365Z,2.17
2018-09-12T13:58:05.186Z,2.10
2018-09-12T14:00:33.984Z,2.17
2018-09-12T14:03:03.861Z,1.83
2018-09-12T14:05:33.504Z,1.70
2018-09-12T14:08:02.516Z,1.73
2018-09-12T14:10:31.373Z,2.03
2018-09-12T14:13:00.191Z,1.90
2018-09-12T14:15:28.999Z,1.77
2018-09-12T14:17:57.857Z,1.90
2018-09-12T14:20:26.789Z,1.93
2018-09-12T14:22:55.628Z,2.00
2018-09-12T14:25:24.461Z,1.83
2018-09-12T14:27:53.309Z,1.80
2018-09-12T14:30:22.107Z,1.70
2018-09-12T14:32:51.001Z,2.10
2018-09-12T14:35:19.899Z,1.87
2018-09-12T14:37:48.803Z,2.90
2018-09-12T14:40:17.668Z,2.80
2018-09-12T14:42:46.567Z,1.97
2018-09-12T14:45:15.402Z,1.93
2018-09-12T14:47:44.247Z,2.20
2018-09-12T14:50:13.102Z,2.50
2018-09-12T14:52:42.149Z,2.50
2018-09-12T14:55:11.021Z,2.20
2018-09-12T14:57:40.103Z,2.50
2018-09-12T15:00:09.312Z,2.73
2018-09-12T15:02:38.269Z,2.40
2018-09-12T15:05:07.297Z,2.10
2018-09-12T15:07:36.164Z,2.60
2018-09-12T15:10:05.050Z,2.20
2018-09-12T15:12:34.487Z,2.57
2018-09-12T15:15:03.412Z,2.87
2018-09-12T15:17:32.243Z,2.40
2018-09-12T15:20:01.096Z,3.27
2018-09-12T15:22:29.912Z,2.90
2018-09-12T15:24:58.795Z,3.47
2018-09-12T15:27:27.844Z,2.80
2018-09-12T15:29:56.692Z,2.90
2018-09-12T15:32:25.665Z,3.10
2018-09-12T15:34:55.012Z,3.70
2018-09-12T15:37:23.882Z,3.13
2018-09-12T15:39:52.734Z,4.43
2018-09-12T15:42:21.584Z,3.80
2018-09-12T15:44:50.486Z,3.50
2018-09-12T15:47:19.331Z,3.43
2018-09-12T15:49:48.167Z,3.67
2018-09-12T15:52:17.070Z,3.30
2018-09-12T15:54:45.913Z,4.03
2018-09-12T15:57:14.833Z,3.10
2018-09-12T15:59:43.677Z,4.33
2018-09-12T16:02:12.924Z,3.50
2018-09-12T16:04:41.804Z,2.70
2018-09-12T16:07:10.683Z,3.63
2018-09-12T16:09:39.548Z,3.57
2018-09-12T16:12:08.459Z,3.70
2018-09-12T16:14:37.338Z,3.63
2018-09-12T16:17:06.199Z,3.40
2018-09-12T16:19:35.081Z,3.90
2018-09-12T16:22:03.918Z,3.50
2018-09-12T16:24:32.883Z,3.27
2018-09-12T16:27:01.764Z,4.13
2018-09-12T16:29:30.603Z,3.70
2018-09-12T16:31:59.465Z,4.50
2018-09-12T16:34:28.373Z,3.90
2018-09-12T16:36:57.200Z,3.23
2018-09-12T16:39:26.070Z,6.20
2018-09-12T16:41:54.949Z,4.20
2018-09-12T16:44:23.792Z,3.93
2018-09-12T16:46:52.697Z,4.60
2018-09-12T16:49:21.557Z,5.23
2018-09-12T16:51:50.383Z,4.90
2018-09-12T16:54:19.262Z,5.10
2018-09-12T16:56:48.174Z,4.30
2018-09-12T16:59:16.935Z,5.07
2018-09-12T17:01:45.779Z,4.37
2018-09-12T17:04:14.636Z,4.20
2018-09-12T17:06:43.566Z,3.70
2018-09-12T17:09:12.612Z,3.80
2018-09-12T17:11:41.464Z,4.43
2018-09-12T17:14:10.310Z,3.90
2018-09-12T17:16:39.083Z,3.50
2018-09-12T17:19:07.931Z,4.80
2018-09-12T17:21:36.810Z,5.10
2018-09-12T17:24:05.727Z,4.50
2018-09-12T17:26:34.568Z,5.30
2018-09-12T17:29:03.419Z,5.50
2018-09-12T17:31:32.287Z,6.40
2018-09-12T17:34:01.233Z,4.30
2018-09-12T17:36:30.080Z,4.03
2018-09-12T17:38:59.012Z,4.80
2018-09-12T17:41:27.840Z,4.53
2018-09-12T17:43:56.702Z,4.40
2018-09-12T17:46:25.487Z,4.73
2018-09-12T17:48:54.343Z,5.00
2018-09-12T17:51:23.186Z,5.50
2018-09-12T17:53:52.063Z,4.80
2018-09-12T17:56:20.858Z,4.80
2018-09-12T17:58:49.888Z,4.90
2018-09-12T18:01:18.776Z,4.90
2018-09-12T18:03:47.619Z,5.27
2018-09-12T18:06:16.454Z,5.63
2018-09-12T18:08:45.302Z,4.93
2018-09-12T18:11:14.147Z,5.53
2018-09-12T18:13:42.967Z,4.63
2018-09-12T18:16:11.910Z,4.20
2018-09-12T18:18:40.773Z,4.33
2018-09-12T18:21:09.651Z,4.30
2018-09-12T18:23:38.548Z,5.00
2018-09-12T18:26:07.359Z,4.27
2018-09-12T18:28:36.291Z,4.13
2018-09-12T18:31:05.430Z,4.03
2018-09-12T18:33:34.276Z,4.10
2018-09-12T18:36:03.286Z,3.70
2018-09-12T18:38:32.066Z,3.57
2018-09-12T18:41:00.907Z,4.53
2018-09-12T18:43:29.738Z,3.50
2018-09-12T18:45:58.580Z,3.20
2018-09-12T18:48:27.387Z,3.03
2018-09-12T18:50:56.218Z,3.70
2018-09-12T18:53:25.055Z,4.60
2018-09-12T18:55:53.901Z,3.53
2018-09-12T18:58:22.778Z,3.60
2018-09-12T19:00:51.708Z,3.47
2018-09-12T19:03:20.577Z,2.67
2018-09-12T19:05:49.446Z,4.10
2018-09-12T19:08:18.291Z,2.73
2018-09-12T19:10:47.252Z,3.43
2018-09-12T19:13:16.169Z,3.07
2018-09-12T19:15:45.057Z,2.30
2018-09-12T19:18:13.956Z,3.07
2018-09-12T19:20:42.934Z,2.30
2018-09-12T19:23:11.768Z,2.50
2018-09-12T19:25:40.652Z,2.60
2018-09-12T19:28:09.799Z,2.53
2018-09-12T19:30:38.673Z,2.10
2018-09-12T19:33:07.503Z,1.60
2018-09-12T19:35:36.334Z,1.27
2018-09-12T19:38:05.209Z,1.20
2018-09-12T19:40:34.060Z,1.40
2018-09-12T19:43:02.932Z,2.60
2018-09-12T19:45:31.772Z,2.10
2018-09-12T19:48:00.598Z,1.80
2018-09-12T19:50:29.419Z,2.00
2018-09-12T19:52:58.242Z,1.53
2018-09-12T19:55:27.079Z,3.40
2018-09-12T19:57:55.909Z,2.70
2018-09-12T20:00:24.764Z,2.30
2018-09-12T20:02:53.546Z,2.30
2018-09-12T20:05:22.415Z,2.60
2018-09-12T20:07:51.296Z,1.43
2018-09-12T20:10:20.174Z,1.50
2018-09-12T20:12:49.037Z,1.60
2018-09-12T20:15:17.944Z,1.60
2018-09-12T20:17:46.765Z,1.83
2018-09-12T20:20:15.567Z,1.60
2018-09-12T20:22:44.437Z,2.53
2018-09-12T20:25:13.267Z,2.37
2018-09-12T20:27:42.141Z,2.40
2018-09-12T20:30:11.047Z,1.97
2018-09-12T20:32:39.816Z,1.80
2018-09-12T20:35:08.643Z,1.40
2018-09-12T20:37:37.548Z,1.20
2018-09-12T20:40:06.431Z,1.40
2018-09-12T20:42:35.297Z,1.37
2018-09-12T20:45:04.175Z,1.57
2018-09-12T20:47:33.053Z,1.70
2018-09-12T20:50:01.891Z,2.23
2018-09-12T20:52:30.739Z,2.60
2018-09-12T20:54:59.567Z,1.70
2018-09-12T20:57:28.463Z,1.40
2018-09-12T20:59:57.327Z,1.70
2018-09-12T21:02:26.204Z,1.40
2018-09-12T21:04:55.071Z,1.60
2018-09-12T21:07:23.899Z,1.87
2018-09-12T21:09:52.729Z,5.67
2018-09-12T21:12:21.559Z,2.40
2018-09-12T21:14:50.369Z,1.87
2018-09-12T21:17:19.200Z,1.70
2018-09-12T21:19:48.076Z,1.30
2018-09-12T21:22:16.936Z,1.80
2018-09-12T21:24:45.768Z,2.67
2018-09-12T21:27:14.686Z,2.20
2018-09-12T21:29:43.550Z,1.70
2018-09-12T21:32:12.403Z,2.00
2018-09-12T21:34:41.330Z,2.07
2018-09-12T21:37:10.169Z,1.60
2018-09-12T21:39:39.078Z,1.60
2018-09-12T21:42:07.965Z,2.80
2018-09-12T21:44:36.776Z,2.50
2018-09-12T21:47:05.818Z,1.60
2018-09-12T21:49:34.712Z,2.13
2018-09-12T21:52:03.539Z,2.60
2018-09-12T21:54:32.418Z,2.27
2018-09-12T21:57:01.329Z,1.53
2018-09-12T21:59:30.188Z,1.60
2018-09-12T22:01:59.082Z,1.60
2018-09-12T22:04:27.964Z,1.83
2018-09-12T22:06:56.791Z,1.83
2018-09-12T22:09:25.611Z,2.40
2018-09-12T22:11:54.442Z,1.80
2018-09-12T22:14:23.300Z,2.00
2018-09-12T22:16:52.156Z,2.00
2018-09-12T22:19:20.986Z,2.50
2018-09-12T22:21:49.839Z,2.50
2018-09-12T22:24:18.755Z,2.37
2018-09-12T22:26:47.814Z,2.17
2018-09-12T22:29:16.676Z,2.20
2018-09-12T22:31:45.615Z,2.40
2018-09-12T22:34:14.541Z,2.07
2018-09-12T22:36:43.383Z,2.07
2018-09-12T22:39:12.573Z,1.83
2018-09-12T22:41:41.571Z,2.00
2018-09-12T22:44:10.386Z,1.67
2018-09-12T22:46:39.245Z,1.83
2018-09-12T22:49:08.108Z,1.60
2018-09-12T22:51:36.991Z,1.93
2018-09-12T22:54:05.853Z,2.30
2018-09-12T22:56:34.704Z,1.70
2018-09-12T22:59:03.551Z,1.70
2018-09-12T23:01:32.362Z,1.70
2018-09-12T23:04:01.196Z,1.70
2018-09-12T23:06:30.085Z,1.90
2018-09-12T23:08:58.910Z,1.90
2018-09-12T23:11:27.711Z,1.60
2018-09-12T23:13:56.596Z,1.60
2018-09-12T23:16:25.439Z,1.60
2018-09-12T23:18:54.316Z,2.00
2018-09-12T23:21:23.197Z,1.90
2018-09-12T23:23:52.049Z,2.50
2018-09-12T23:26:20.904Z,1.57
2018-09-12T23:28:49.777Z,1.67
2018-09-12T23:31:18.600Z,1.50
2018-09-12T23:33:47.666Z,1.97
2018-09-12T23:36:16.530Z,1.80
2018-09-12T23:38:45.438Z,1.50
2018-09-12T23:41:14.320Z,1.67
2018-09-12T23:43:43.188Z,2.00
2018-09-12T23:46:12.024Z,1.63
2018-09-12T23:48:40.925Z,1.73
2018-09-12T23:51:09.726Z,2.00
2018-09-12T23:53:38.542Z,3.00
2018-09-12T23:56:07.380Z,1.70
2018-09-12T23:58:36.228Z,1.93
